Terminal Aerodrome Forecast
Issued by NWS

Home | Current Version | Previous Version | Text Only | Print | Product List | Glossary On
Versions: 1 2 3 4 5 6 7 8 9 10 11 12 13 14 15 16 17 18 19 20
000
FTUS45 KVEF 220200 AAA
TAFEED
TAF AMD
KEED 220204Z 2202/2224 25012G22KT P6SM SCT100 BKN150
     FM220400 22007KT P6SM SCT120 BKN200
     FM221400 VRB05KT P6SM FEW120=

USA.gov is the U.S. government's official web portal to all federal, state and local government web resources and services.